Edgerton, Ohio
Current Conditions -  °F | °C
As of 2:53 PM on Sunday 23 Nov 2014 (Local Time) from KDFI Reporting Station
Overcast Overcast  
Wind Chill: 58°   Ceiling: 4100
Heat Index: 58°   Visibility: 10mi
Dew Point: 47°   Wind: 7mph
Humidity: 67%   Direction: 140°SE
Pressure: 29.67"   Gusts: NA
Location:  41.45°N, 84.75°W
Report Text: KDFI 231953Z AUTO 14006KT 10SM BKN041 OVC047 14/08 A2967 RMK AO2 SLP049 T01440083
Loading
Personal Weather Stations






























Interactive Weather Map New forecast layout! Learn more

10-Day Weather Forecast

Advertisements
Track Severe Weather on mobile